Time;durP1;ratioP1;P1;durP2;ratioP2;P2;SDS_P1;SDS_P2;PMS_P1;PMS_P2;Temp;Humidity;BMP_temperature;BMP_pressure;BME280_temperature;BME280_humidity;BME280_pressure;Samples;Min_cycle;Max_cycle;Signal;HPM_P1;HPM_P2
2022/08/28 00:02:05;;;;;;;;;;;;;;;;;;5080060;28;20353;-86
2022/08/28 00:04:30;;;;;;;;;;;;;;;;;;5080162;28;19916;-86
2022/08/28 00:06:56;;;;;;;;;;;;;;;;;;5115203;28;19916;-86
2022/08/28 00:09:21;;;;;;;;;;;;;;;;;;5115805;28;20010;-85
2022/08/28 00:11:48;;;;;;;;;;;;;;;;;;5115108;28;20234;-86
2022/08/28 00:14:13;;;;;;;;;;;;;;;;;;5097713;28;19916;-84
2022/08/28 00:16:38;;;;;;;;;;;;;;;;;;5115028;28;19923;-84
2022/08/28 00:19:04;;;;;;;;;;;;;;;;;;5097064;28;19916;-84
2022/08/28 00:21:30;;;;;;;;;;;;;;;;;;5097328;28;19916;-85
2022/08/28 00:23:55;;;;;;;;;;;;;;;;;;5080240;28;20006;-85
2022/08/28 00:29:05;;;;;;;;;;;;;;;;;;5099719;28;19930;-85
2022/08/28 00:31:30;;;;;;;;;;;;;;;;;;5096609;28;20337;-85
2022/08/28 00:33:56;;;;;;;;;;;;;;;;;;5096952;28;19922;-85
2022/08/28 00:36:21;;;;;;;;;;;;;;;;;;5095876;28;20349;-85
2022/08/28 00:38:46;;;;;;;;;;;;;;;;;;5096660;28;19916;-85
2022/08/28 00:41:11;;;;;;;;;;;;;;;;;;5096867;28;19972;-85
2022/08/28 00:43:40;;;;;;;;;;;;;;;;;;5096494;28;19916;-85
2022/08/28 00:46:10;;;;;;;;;;;;;;;;;;5114756;28;20307;-85
2022/08/28 00:48:35;;;;;;;;;;;;;;;;;;5096717;28;20389;-85
2022/08/28 00:53:44;;;;;;;;;;;;;;;;;;5099317;28;20311;-86
2022/08/28 00:56:10;;;;;;;;;;;;;;;;;;5096408;28;19919;-85
2022/08/28 00:58:35;;;;;;;;;;;;;;;;;;5096458;28;19920;-85
2022/08/28 01:01:01;;;;;;;;;;;;;;;;;;5096060;28;19920;-85
2022/08/28 01:03:26;;;;;;;;;;;;;;;;;;5096279;28;19916;-85
2022/08/28 01:05:51;;;;;;;;;;;;;;;;;;5096548;28;19963;-84
2022/08/28 01:08:17;;;;;;;;;;;;;;;;;;5096826;28;19954;-85
2022/08/28 01:10:43;;;;;;;;;;;;;;;;;;5097306;28;19959;-85
2022/08/28 01:13:08;;;;;;;;;;;;;;;;;;5097175;28;20242;-84
2022/08/28 01:15:34;;;;;;;;;;;;;;;;;;5114314;28;19919;-85
2022/08/28 01:18:01;;;;;;;;;;;;;;;;;;5079657;28;20014;-85
2022/08/28 01:20:28;;;;;;;;;;;;;;;;;;5096298;28;20049;-85
2022/08/28 01:22:58;;;;;;;;;;;;;;;;;;5096498;28;19916;-84
2022/08/28 01:25:23;;;;;;;;;;;;;;;;;;5098101;28;20235;-85
2022/08/28 01:27:50;;;;;;;;;;;;;;;;;;5086455;28;19930;-85
2022/08/28 01:30:17;;;;;;;;;;;;;;;;;;5114929;28;19919;-86
2022/08/28 01:32:44;;;;;;;;;;;;;;;;;;5096539;28;19923;-84
2022/08/28 01:35:11;;;;;;;;;;;;;;;;;;5096872;28;19916;-84
2022/08/28 01:37:36;;;;;;;;;;;;;;;;;;5096211;28;19915;-85
2022/08/28 01:40:02;;;;;;;;;;;;;;;;;;5096094;28;20326;-85
2022/08/28 01:42:27;;;;;;;;;;;;;;;;;;5113945;28;19916;-84
2022/08/28 01:44:53;;;;;;;;;;;;;;;;;;5114448;28;19923;-85
2022/08/28 01:47:19;;;;;;;;;;;;;;;;;;5114195;28;19916;-85
2022/08/28 01:49:44;;;;;;;;;;;;;;;;;;5099590;28;19915;-86
2022/08/28 01:52:10;;;;;;;;;;;;;;;;;;5117801;28;20363;-86
2022/08/28 01:54:35;;;;;;;;;;;;;;;;;;5117942;28;20268;-85
2022/08/28 01:57:00;;;;;;;;;;;;;;;;;;5099529;28;20363;-86
2022/08/28 01:59:26;;;;;;;;;;;;;;;;;;5099476;28;19916;-86
2022/08/28 02:01:51;;;;;;;;;;;;;;;;;;5099397;28;19916;-85
2022/08/28 02:04:16;;;;;;;;;;;;;;;;;;5099371;28;19916;-85
2022/08/28 02:06:42;;;;;;;;;;;;;;;;;;5117637;28;19923;-85
2022/08/28 02:09:07;;;;;;;;;;;;;;;;;;5118042;28;19916;-86
2022/08/28 02:11:32;;;;;;;;;;;;;;;;;;5099032;28;20245;-84
2022/08/28 02:13:58;;;;;;;;;;;;;;;;;;5099471;28;19920;-84
2022/08/28 02:16:23;;;;;;;;;;;;;;;;;;5099319;28;19958;-85
2022/08/28 02:18:48;;;;;;;;;;;;;;;;;;5099191;28;20300;-85
2022/08/28 02:21:14;;;;;;;;;;;;;;;;;;5099106;28;19916;-85
2022/08/28 02:23:40;;;;;;;;;;;;;;;;;;5099053;28;19923;-85
2022/08/28 02:26:06;;;;;;;;;;;;;;;;;;5082211;28;20006;-85
2022/08/28 02:28:32;;;;;;;;;;;;;;;;;;5117023;28;20348;-84
2022/08/28 02:30:58;;;;;;;;;;;;;;;;;;5099354;28;19920;-84
2022/08/28 02:33:23;;;;;;;;;;;;;;;;;;5098778;28;20380;-85
2022/08/28 02:35:49;;;;;;;;;;;;;;;;;;5117268;28;19923;-85
2022/08/28 02:38:15;;;;;;;;;;;;;;;;;;5099223;28;19922;-86
2022/08/28 02:40:41;;;;;;;;;;;;;;;;;;5100063;28;19916;-86
2022/08/28 02:43:06;;;;;;;;;;;;;;;;;;5103742;28;19922;-86
2022/08/28 02:45:32;;;;;;;;;;;;;;;;;;5128143;28;19966;-87
2022/08/28 02:47:57;;;;;;;;;;;;;;;;;;5104938;28;19920;-86
2022/08/28 02:50:22;;;;;;;;;;;;;;;;;;5098513;28;19998;-85
2022/08/28 02:52:48;;;;;;;;;;;;;;;;;;5081752;28;19916;-86
2022/08/28 02:55:14;;;;;;;;;;;;;;;;;;5098143;28;20371;-85
2022/08/28 02:57:40;;;;;;;;;;;;;;;;;;5098388;28;19923;-86
2022/08/28 03:00:06;;;;;;;;;;;;;;;;;;5097368;28;19927;-86
2022/08/28 03:02:32;;;;;;;;;;;;;;;;;;5081268;28;20304;-85
2022/08/28 03:04:58;;;;;;;;;;;;;;;;;;5098618;28;19947;-86
2022/08/28 03:07:23;;;;;;;;;;;;;;;;;;5098535;28;19916;-85
2022/08/28 03:09:49;;;;;;;;;;;;;;;;;;5097796;28;19937;-85
2022/08/28 03:12:15;;;;;;;;;;;;;;;;;;5116348;28;20356;-86
2022/08/28 03:14:41;;;;;;;;;;;;;;;;;;5116229;28;19915;-85
2022/08/28 03:17:06;;;;;;;;;;;;;;;;;;5116161;28;20896;-85
2022/08/28 03:19:32;;;;;;;;;;;;;;;;;;5097974;28;19926;-85
2022/08/28 03:21:57;;;;;;;;;;;;;;;;;;5116582;28;20022;-85
2022/08/28 03:24:22;;;;;;;;;;;;;;;;;;5081080;28;20336;-84
2022/08/28 03:26:48;;;;;;;;;;;;;;;;;;5116386;28;20381;-85
2022/08/28 03:29:13;;;;;;;;;;;;;;;;;;5115952;28;20348;-85
2022/08/28 03:31:38;;;;;;;;;;;;;;;;;;5115877;28;19958;-85
2022/08/28 03:34:04;;;;;;;;;;;;;;;;;;5097873;28;19962;-85
2022/08/28 03:36:30;;;;;;;;;;;;;;;;;;5115727;28;19923;-86
2022/08/28 03:38:55;;;;;;;;;;;;;;;;;;5097793;28;20333;-86
2022/08/28 03:41:22;;;;;;;;;;;;;;;;;;5080532;28;19922;-86
2022/08/28 03:43:47;;;;;;;;;;;;;;;;;;5097425;28;19955;-86
2022/08/28 03:46:13;;;;;;;;;;;;;;;;;;5097410;28;19985;-85
2022/08/28 03:48:39;;;;;;;;;;;;;;;;;;5097713;28;19916;-85
2022/08/28 03:51:08;;;;;;;;;;;;;;;;;;5115483;28;20352;-86
2022/08/28 03:53:33;;;;;;;;;;;;;;;;;;5115194;28;20004;-86
2022/08/28 03:56:00;;;;;;;;;;;;;;;;;;5097466;28;20367;-85
2022/08/28 03:58:25;;;;;;;;;;;;;;;;;;5097311;28;19915;-86
2022/08/28 04:00:50;;;;;;;;;;;;;;;;;;5097138;28;19926;-86
2022/08/28 04:03:16;;;;;;;;;;;;;;;;;;5080432;28;20371;-85
2022/08/28 04:05:42;;;;;;;;;;;;;;;;;;5115230;28;20006;-85
2022/08/28 04:08:07;;;;;;;;;;;;;;;;;;5096781;28;19922;-84
2022/08/28 04:10:33;;;;;;;;;;;;;;;;;;5097100;28;20011;-86
2022/08/28 04:12:59;;;;;;;;;;;;;;;;;;5097116;28;20327;-85
2022/08/28 04:15:24;;;;;;;;;;;;;;;;;;5096808;28;19947;-85
2022/08/28 04:17:50;;;;;;;;;;;;;;;;;;5114980;28;19959;-86
2022/08/28 04:20:15;;;;;;;;;;;;;;;;;;5096816;28;19920;-86
2022/08/28 04:22:40;;;;;;;;;;;;;;;;;;5080054;28;19916;-86
2022/08/28 04:25:06;;;;;;;;;;;;;;;;;;5114992;28;19916;-86
2022/08/28 04:27:31;;;;;;;;;;;;;;;;;;5115144;28;19916;-86
2022/08/28 04:29:56;;;;;;;;;;;;;;;;;;5115204;28;20356;-86
2022/08/28 04:32:22;;;;;;;;;;;;;;;;;;5115087;28;19930;-85
2022/08/28 04:34:48;;;;;;;;;;;;;;;;;;5114865;28;19923;-86
2022/08/28 04:37:14;;;;;;;;;;;;;;;;;;5114615;28;20021;-86
2022/08/28 04:39:39;;;;;;;;;;;;;;;;;;5079914;28;19915;-86
2022/08/28 04:42:04;;;;;;;;;;;;;;;;;;5080003;28;19965;-86
2022/08/28 04:44:31;;;;;;;;;;;;;;;;;;5096667;28;19923;-86
2022/08/28 04:46:56;;;;;;;;;;;;;;;;;;5097323;28;20249;-86
2022/08/28 04:49:22;;;;;;;;;;;;;;;;;;5096517;28;19923;-86
2022/08/28 04:51:47;;;;;;;;;;;;;;;;;;5096369;28;19923;-86
2022/08/28 04:54:12;;;;;;;;;;;;;;;;;;5097158;28;20394;-86
2022/08/28 04:56:38;;;;;;;;;;;;;;;;;;5096682;28;19998;-86
2022/08/28 04:59:03;;;;;;;;;;;;;;;;;;5115660;28;20016;-85
2022/08/28 05:01:28;;;;;;;;;;;;;;;;;;5097826;28;20250;-85
2022/08/28 05:03:56;;;;;;;;;;;;;;;;;;5116814;28;19940;-88
2022/08/28 05:06:21;;;;;;;;;;;;;;;;;;5098828;28;19919;-87
2022/08/28 05:08:47;;;;;;;;;;;;;;;;;;5096521;28;19916;-86
2022/08/28 05:11:17;;;;;;;;;;;;;;;;;;5096385;28;19919;-87
2022/08/28 05:13:42;;;;;;;;;;;;;;;;;;5079778;28;19915;-86
2022/08/28 05:16:08;;;;;;;;;;;;;;;;;;5096789;28;19915;-87
2022/08/28 05:18:33;;;;;;;;;;;;;;;;;;5096435;28;19973;-85
2022/08/28 05:21:00;;;;;;;;;;;;;;;;;;5114141;28;19916;-86
2022/08/28 05:23:25;;;;;;;;;;;;;;;;;;5099468;28;20347;-87
2022/08/28 05:25:51;;;;;;;;;;;;;;;;;;5100677;28;19920;-86
2022/08/28 05:28:17;;;;;;;;;;;;;;;;;;5100238;28;19975;-87
2022/08/28 05:30:42;;;;;;;;;;;;;;;;;;5100259;28;19912;-87
2022/08/28 05:33:08;;;;;;;;;;;;;;;;;;5100003;28;19915;-86
2022/08/28 05:35:37;;;;;;;;;;;;;;;;;;5099995;28;19931;-87
2022/08/28 05:38:02;;;;;;;;;;;;;;;;;;5117134;28;19955;-86
2022/08/28 05:40:28;;;;;;;;;;;;;;;;;;5099922;28;20016;-87
2022/08/28 05:42:54;;;;;;;;;;;;;;;;;;5082710;28;19916;-86
2022/08/28 05:45:21;;;;;;;;;;;;;;;;;;5117881;28;19916;-87
2022/08/28 05:47:46;;;;;;;;;;;;;;;;;;5100004;28;19947;-87
2022/08/28 05:50:12;;;;;;;;;;;;;;;;;;5117635;28;20419;-87
2022/08/28 05:52:38;;;;;;;;;;;;;;;;;;5099720;28;20000;-88
2022/08/28 05:55:04;;;;;;;;;;;;;;;;;;5099763;28;19916;-87
2022/08/28 05:57:29;;;;;;;;;;;;;;;;;;5117618;28;20410;-86
2022/08/28 05:59:54;;;;;;;;;;;;;;;;;;5117542;28;20007;-86
2022/08/28 06:02:20;;;;;;;;;;;;;;;;;;5117725;28;20010;-87
2022/08/28 06:04:46;;;;;;;;;;;;;;;;;;5099279;28;20280;-87
2022/08/28 06:07:14;;;;;;;;;;;;;;;;;;5117696;28;20321;-87
2022/08/28 06:09:39;;;;;;;;;;;;;;;;;;5099450;28;19973;-87
2022/08/28 06:12:05;;;;;;;;;;;;;;;;;;5099171;28;19916;-87
2022/08/28 06:14:30;;;;;;;;;;;;;;;;;;5099364;28;20322;-88
2022/08/28 06:16:55;;;;;;;;;;;;;;;;;;5082376;28;20011;-88
2022/08/28 06:19:21;;;;;;;;;;;;;;;;;;5116944;28;20293;-88
2022/08/28 06:21:47;;;;;;;;;;;;;;;;;;5099182;28;19916;-87
2022/08/28 06:24:12;;;;;;;;;;;;;;;;;;5099216;28;19916;-88
2022/08/28 06:26:38;;;;;;;;;;;;;;;;;;5082375;28;19922;-89
2022/08/28 06:29:07;;;;;;;;;;;;;;;;;;5099023;28;20246;-87
2022/08/28 06:31:33;;;;;;;;;;;;;;;;;;5082370;28;20317;-87
2022/08/28 06:33:59;;;;;;;;;;;;;;;;;;5097709;28;19923;-87
2022/08/28 06:36:26;;;;;;;;;;;;;;;;;;5082212;28;19916;-87
2022/08/28 06:38:51;;;;;;;;;;;;;;;;;;5082383;28;20330;-88
2022/08/28 06:41:17;;;;;;;;;;;;;;;;;;5099479;28;19915;-89
2022/08/28 06:43:42;;;;;;;;;;;;;;;;;;5099375;28;20326;-88
2022/08/28 06:46:07;;;;;;;;;;;;;;;;;;5099394;28;19916;-88
2022/08/28 06:48:33;;;;;;;;;;;;;;;;;;5116447;28;19915;-87
2022/08/28 06:50:58;;;;;;;;;;;;;;;;;;5081753;28;19939;-87
2022/08/28 06:53:24;;;;;;;;;;;;;;;;;;5081696;28;20337;-87
2022/08/28 06:56:05;;;;;;;;;;;;;;;;;;5098354;28;19916;-88
2022/08/28 06:58:31;;;;;;;;;;;;;;;;;;5116417;28;19915;-87
2022/08/28 07:01:16;;;;;;;;;;;;;;;;;;5098375;28;20273;-88
2022/08/28 07:03:42;;;;;;;;;;;;;;;;;;5098111;28;20307;-88
2022/08/28 07:06:07;;;;;;;;;;;;;;;;;;5098322;28;20595;-87
2022/08/28 07:08:33;;;;;;;;;;;;;;;;;;5098128;28;20325;-87
2022/08/28 07:10:59;;;;;;;;;;;;;;;;;;5098647;28;20368;-87
2022/08/28 07:13:24;;;;;;;;;;;;;;;;;;5098174;28;19916;-88
2022/08/28 07:15:49;;;;;;;;;;;;;;;;;;5097897;28;19922;-85
2022/08/28 07:18:16;;;;;;;;;;;;;;;;;;5097684;28;20250;-87
2022/08/28 07:20:41;;;;;;;;;;;;;;;;;;5098583;28;19916;-87
2022/08/28 07:23:06;;;;;;;;;;;;;;;;;;5097749;28;19912;-86
2022/08/28 07:25:32;;;;;;;;;;;;;;;;;;5115912;28;20026;-88
2022/08/28 07:27:57;;;;;;;;;;;;;;;;;;5098000;28;20009;-88
2022/08/28 07:30:22;;;;;;;;;;;;;;;;;;5080801;28;19970;-88
2022/08/28 07:32:48;;;;;;;;;;;;;;;;;;5115834;28;19916;-87
2022/08/28 07:35:17;;;;;;;;;;;;;;;;;;5115931;28;19912;-87
2022/08/28 07:37:43;;;;;;;;;;;;;;;;;;5080736;28;19998;-86
2022/08/28 07:40:09;;;;;;;;;;;;;;;;;;5097520;28;20106;-86
2022/08/28 07:45:19;;;;;;;;;;;;;;;;;;5099616;28;19923;-86
2022/08/28 07:47:44;;;;;;;;;;;;;;;;;;5097494;28;19939;-86
2022/08/28 07:50:09;;;;;;;;;;;;;;;;;;5097370;28;19923;-86
2022/08/28 07:52:36;;;;;;;;;;;;;;;;;;5097879;28;20329;-88
2022/08/28 07:55:01;;;;;;;;;;;;;;;;;;5099075;28;20261;-86
2022/08/28 07:57:27;;;;;;;;;;;;;;;;;;5097337;28;19916;-86
2022/08/28 07:59:52;;;;;;;;;;;;;;;;;;5096685;28;19919;-86
2022/08/28 08:02:17;;;;;;;;;;;;;;;;;;5080457;28;19916;-87
2022/08/28 08:04:43;;;;;;;;;;;;;;;;;;5115401;28;19919;-87
2022/08/28 08:07:09;;;;;;;;;;;;;;;;;;5097246;28;20006;-86
2022/08/28 08:09:38;;;;;;;;;;;;;;;;;;5097686;28;19916;-87
2022/08/28 08:12:04;;;;;;;;;;;;;;;;;;5097098;28;19911;-86
2022/08/28 08:14:30;;;;;;;;;;;;;;;;;;5115164;28;19916;-86
2022/08/28 08:16:55;;;;;;;;;;;;;;;;;;5099307;28;19912;-87
2022/08/28 08:19:21;;;;;;;;;;;;;;;;;;5097539;28;20006;-87
2022/08/28 08:21:47;;;;;;;;;;;;;;;;;;5098201;28;20302;-87
2022/08/28 08:24:14;;;;;;;;;;;;;;;;;;5116470;28;19923;-87
2022/08/28 08:26:44;;;;;;;;;;;;;;;;;;5098572;28;19965;-87
2022/08/28 08:29:11;;;;;;;;;;;;;;;;;;5114695;28;19973;-87
2022/08/28 08:31:36;;;;;;;;;;;;;;;;;;5115597;28;20005;-87
2022/08/28 08:34:02;;;;;;;;;;;;;;;;;;5115515;28;19955;-87
2022/08/28 08:36:28;;;;;;;;;;;;;;;;;;5115283;28;19916;-87
2022/08/28 08:38:53;;;;;;;;;;;;;;;;;;5084456;28;19922;-87
2022/08/28 08:41:20;;;;;;;;;;;;;;;;;;5121264;28;20265;-88
2022/08/28 08:44:05;;;;;;;;;;;;;;;;;;5097530;28;19915;-88
2022/08/28 08:46:32;;;;;;;;;;;;;;;;;;5118782;28;19919;-85
2022/08/28 08:49:01;;;;;;;;;;;;;;;;;;5115593;28;19912;-85
2022/08/28 08:51:33;;;;;;;;;;;;;;;;;;5117728;28;19919;-86
2022/08/28 08:54:09;;;;;;;;;;;;;;;;;;5104077;28;19965;-86
2022/08/28 08:56:34;;;;;;;;;;;;;;;;;;5116180;28;19920;-85
2022/08/28 08:59:00;;;;;;;;;;;;;;;;;;5107592;28;19950;-84
2022/08/28 09:01:30;;;;;;;;;;;;;;;;;;5125346;28;19938;-85
2022/08/28 09:04:13;;;;;;;;;;;;;;;;;;5108415;28;19943;-82
2022/08/28 09:06:42;;;;;;;;;;;;;;;;;;5141842;27;19905;-84
2022/08/28 09:09:17;;;;;;;;;;;;;;;;;;5106179;28;19920;-86
2022/08/28 09:11:48;;;;;;;;;;;;;;;;;;5140257;27;19911;-85
2022/08/28 09:14:23;;;;;;;;;;;;;;;;;;5104779;28;19920;-85
2022/08/28 09:16:48;;;;;;;;;;;;;;;;;;5108866;28;19927;-84
2022/08/28 09:19:16;;;;;;;;;;;;;;;;;;5102706;28;19935;-86
2022/08/28 09:21:42;;;;;;;;;;;;;;;;;;5101169;28;20284;-86
2022/08/28 09:24:10;;;;;;;;;;;;;;;;;;5100678;28;19916;-87
2022/08/28 09:26:36;;;;;;;;;;;;;;;;;;5101148;28;20002;-88
2022/08/28 09:29:05;;;;;;;;;;;;;;;;;;5118850;28;19954;-87
2022/08/28 09:31:37;;;;;;;;;;;;;;;;;;5100035;28;19923;-87
2022/08/28 09:34:22;;;;;;;;;;;;;;;;;;5100054;28;19923;-86
2022/08/28 09:36:48;;;;;;;;;;;;;;;;;;5118232;28;19915;-87
2022/08/28 09:39:23;;;;;;;;;;;;;;;;;;5099931;28;19916;-86
2022/08/28 09:44:58;;;;;;;;;;;;;;;;;;5118261;28;20427;-86
2022/08/28 09:47:33;;;;;;;;;;;;;;;;;;5091419;28;20002;-86
2022/08/28 09:50:17;;;;;;;;;;;;;;;;;;5117958;28;20013;-86
2022/08/28 09:52:42;;;;;;;;;;;;;;;;;;5117809;28;19922;-86
2022/08/28 09:55:07;;;;;;;;;;;;;;;;;;5082616;28;20323;-86
2022/08/28 09:57:33;;;;;;;;;;;;;;;;;;5082462;28;19915;-86
2022/08/28 09:59:58;;;;;;;;;;;;;;;;;;5082504;28;19923;-87
2022/08/28 10:02:26;;;;;;;;;;;;;;;;;;5099260;28;19916;-86
2022/08/28 10:05:00;;;;;;;;;;;;;;;;;;5099394;28;19937;-87
2022/08/28 10:07:28;;;;;;;;;;;;;;;;;;5099230;28;20454;-85
2022/08/28 10:09:54;;;;;;;;;;;;;;;;;;5117319;28;19915;-85
2022/08/28 10:12:38;;;;;;;;;;;;;;;;;;5116173;28;19922;-86
2022/08/28 10:15:09;;;;;;;;;;;;;;;;;;5116389;28;19915;-85
2022/08/28 10:17:43;;;;;;;;;;;;;;;;;;5117369;28;19915;-86
2022/08/28 10:20:12;;;;;;;;;;;;;;;;;;5117197;28;19923;-86
2022/08/28 10:22:56;;;;;;;;;;;;;;;;;;5099204;28;19916;-85
2022/08/28 10:25:25;;;;;;;;;;;;;;;;;;5115879;28;19916;-87
2022/08/28 10:27:53;;;;;;;;;;;;;;;;;;5117633;28;20021;-87
2022/08/28 10:30:20;;;;;;;;;;;;;;;;;;5115783;28;19923;-86
2022/08/28 10:32:48;;;;;;;;;;;;;;;;;;5082286;28;20257;-86
2022/08/28 10:35:14;;;;;;;;;;;;;;;;;;5116902;28;19922;-85
2022/08/28 10:37:49;;;;;;;;;;;;;;;;;;5115912;28;19916;-86
2022/08/28 10:40:27;;;;;;;;;;;;;;;;;;5098394;28;20402;-86
2022/08/28 10:43:00;;;;;;;;;;;;;;;;;;5115864;28;20379;-85
2022/08/28 10:45:26;;;;;;;;;;;;;;;;;;5098617;28;19916;-87
2022/08/28 10:47:53;;;;;;;;;;;;;;;;;;5098590;28;19939;-86
2022/08/28 10:50:26;;;;;;;;;;;;;;;;;;5098495;28;20250;-85
2022/08/28 10:53:10;;;;;;;;;;;;;;;;;;5081855;28;19938;-85
2022/08/28 10:55:43;;;;;;;;;;;;;;;;;;5116610;28;19981;-86
2022/08/28 10:58:11;;;;;;;;;;;;;;;;;;5098692;28;19951;-85
2022/08/28 11:00:37;;;;;;;;;;;;;;;;;;5116263;28;20701;-85
2022/08/28 11:03:02;;;;;;;;;;;;;;;;;;5081856;28;19916;-84
2022/08/28 11:05:32;;;;;;;;;;;;;;;;;;5116424;28;20318;-86
2022/08/28 11:07:58;;;;;;;;;;;;;;;;;;5080871;28;20827;-85
2022/08/28 11:10:35;;;;;;;;;;;;;;;;;;5098436;28;20006;-85
2022/08/28 11:13:01;;;;;;;;;;;;;;;;;;5116253;28;19912;-85
2022/08/28 11:15:26;;;;;;;;;;;;;;;;;;5081151;28;19922;-85
2022/08/28 11:17:53;;;;;;;;;;;;;;;;;;5115165;28;19969;-85
2022/08/28 11:20:24;;;;;;;;;;;;;;;;;;5097366;28;19999;-86
2022/08/28 11:22:53;;;;;;;;;;;;;;;;;;5097727;28;20287;-85
2022/08/28 11:25:37;;;;;;;;;;;;;;;;;;5115095;28;19919;-85
2022/08/28 11:28:21;;;;;;;;;;;;;;;;;;5115938;28;19974;-86
2022/08/28 11:31:04;;;;;;;;;;;;;;;;;;5116174;28;19951;-86
2022/08/28 11:33:33;;;;;;;;;;;;;;;;;;5115788;28;19916;-85
2022/08/28 11:35:58;;;;;;;;;;;;;;;;;;5115876;28;19923;-85
2022/08/28 11:38:42;;;;;;;;;;;;;;;;;;5115345;28;19916;-83
2022/08/28 11:41:10;;;;;;;;;;;;;;;;;;5115620;28;19969;-84
2022/08/28 11:43:35;;;;;;;;;;;;;;;;;;5115738;28;20302;-84
2022/08/28 11:46:01;;;;;;;;;;;;;;;;;;5097507;28;19915;-84
2022/08/28 11:48:32;;;;;;;;;;;;;;;;;;5115559;28;20325;-83
2022/08/28 11:51:05;;;;;;;;;;;;;;;;;;5114613;28;19924;-84
2022/08/28 11:53:48;;;;;;;;;;;;;;;;;;5115444;28;19911;-84
2022/08/28 11:56:28;;;;;;;;;;;;;;;;;;5097547;28;19964;-84
2022/08/28 11:58:54;;;;;;;;;;;;;;;;;;5115522;28;19916;-84
2022/08/28 12:01:26;;;;;;;;;;;;;;;;;;5114275;28;19919;-84
2022/08/28 12:03:55;;;;;;;;;;;;;;;;;;5097114;28;19980;-83
2022/08/28 12:06:39;;;;;;;;;;;;;;;;;;5113850;28;19923;-84
2022/08/28 12:09:04;;;;;;;;;;;;;;;;;;5114498;28;19961;-84
2022/08/28 12:11:39;;;;;;;;;;;;;;;;;;5097068;28;19954;-84
2022/08/28 12:14:07;;;;;;;;;;;;;;;;;;5115573;28;19922;-83
2022/08/28 12:16:51;;;;;;;;;;;;;;;;;;5117291;28;19954;-85
2022/08/28 12:19:35;;;;;;;;;;;;;;;;;;5115250;28;19919;-84
2022/08/28 12:22:04;;;;;;;;;;;;;;;;;;5113784;28;19916;-85
2022/08/28 12:24:29;;;;;;;;;;;;;;;;;;5115073;28;19912;-84
2022/08/28 12:26:54;;;;;;;;;;;;;;;;;;5079968;28;19922;-84
2022/08/28 12:29:20;;;;;;;;;;;;;;;;;;5096672;28;19912;-85
2022/08/28 12:34:32;;;;;;;;;;;;;;;;;;5115138;28;19969;-84
2022/08/28 12:36:57;;;;;;;;;;;;;;;;;;5115170;28;19919;-85
2022/08/28 12:39:23;;;;;;;;;;;;;;;;;;5096622;28;19916;-84
2022/08/28 12:41:48;;;;;;;;;;;;;;;;;;5080036;28;19916;-84
2022/08/28 12:44:14;;;;;;;;;;;;;;;;;;5096854;28;19922;-85
2022/08/28 12:46:41;;;;;;;;;;;;;;;;;;5080224;28;19922;-85
2022/08/28 12:49:24;;;;;;;;;;;;;;;;;;5080133;28;19923;-85
2022/08/28 12:51:49;;;;;;;;;;;;;;;;;;5079671;28;19916;-84
2022/08/28 12:54:15;;;;;;;;;;;;;;;;;;5096505;28;19922;-84
2022/08/28 12:56:41;;;;;;;;;;;;;;;;;;5079751;28;19923;-85
2022/08/28 12:59:22;;;;;;;;;;;;;;;;;;5096706;28;19916;-84
2022/08/28 13:01:48;;;;;;;;;;;;;;;;;;5113678;28;20257;-84
2022/08/28 13:04:20;;;;;;;;;;;;;;;;;;5115609;28;19915;-84
2022/08/28 13:06:47;;;;;;;;;;;;;;;;;;5096043;28;21478;-85
2022/08/28 13:09:13;;;;;;;;;;;;;;;;;;5097781;28;19916;-84
2022/08/28 13:11:39;;;;;;;;;;;;;;;;;;5080684;28;20329;-85
2022/08/28 13:14:04;;;;;;;;;;;;;;;;;;5097751;28;19916;-86
2022/08/28 13:16:43;;;;;;;;;;;;;;;;;;5097255;28;20345;-85
2022/08/28 13:19:21;;;;;;;;;;;;;;;;;;5097831;28;19916;-85
2022/08/28 13:21:46;;;;;;;;;;;;;;;;;;5114654;28;19923;-85
2022/08/28 13:24:20;;;;;;;;;;;;;;;;;;5114408;28;19916;-86
2022/08/28 13:26:46;;;;;;;;;;;;;;;;;;5114644;28;19955;-85
2022/08/28 13:29:16;;;;;;;;;;;;;;;;;;5079497;28;19955;-85
2022/08/28 13:31:41;;;;;;;;;;;;;;;;;;5096481;28;19973;-85
2022/08/28 13:34:11;;;;;;;;;;;;;;;;;;5079286;28;19916;-85
2022/08/28 13:37:00;;;;;;;;;;;;;;;;;;5096304;28;19916;-84
2022/08/28 13:39:26;;;;;;;;;;;;;;;;;;5104014;28;20253;-84
2022/08/28 13:41:56;;;;;;;;;;;;;;;;;;5079481;28;19923;-86
2022/08/28 13:44:28;;;;;;;;;;;;;;;;;;5082487;28;19915;-85
2022/08/28 13:46:54;;;;;;;;;;;;;;;;;;5099931;28;20331;-84
2022/08/28 13:49:20;;;;;;;;;;;;;;;;;;5082812;28;19962;-85
2022/08/28 13:51:45;;;;;;;;;;;;;;;;;;5083084;28;19916;-85
2022/08/28 13:54:11;;;;;;;;;;;;;;;;;;5099615;28;19915;-85
2022/08/28 13:56:36;;;;;;;;;;;;;;;;;;5117897;28;19923;-84
2022/08/28 13:59:02;;;;;;;;;;;;;;;;;;5118076;28;19916;-85
2022/08/28 14:03:34;;;;;;;;;;;;;;;;;;5118078;28;19920;-84
2022/08/28 14:04:12;;;;;;;;;;;;;;;;;;5117666;28;19920;-85
2022/08/28 14:06:38;;;;;;;;;;;;;;;;;;5117651;28;19918;-84
2022/08/28 14:09:03;;;;;;;;;;;;;;;;;;5117576;28;19922;-85
2022/08/28 14:11:28;;;;;;;;;;;;;;;;;;5099332;28;19918;-85
2022/08/28 14:13:54;;;;;;;;;;;;;;;;;;5099306;28;19942;-85
2022/08/28 14:16:19;;;;;;;;;;;;;;;;;;5099239;28;19922;-84
2022/08/28 14:18:44;;;;;;;;;;;;;;;;;;5098818;28;19968;-85
2022/08/28 14:21:09;;;;;;;;;;;;;;;;;;5117789;28;20396;-85
2022/08/28 14:23:35;;;;;;;;;;;;;;;;;;5099199;28;19959;-84
2022/08/28 14:26:02;;;;;;;;;;;;;;;;;;5099014;28;19958;-85
2022/08/28 14:28:27;;;;;;;;;;;;;;;;;;5082307;28;19912;-85
2022/08/28 14:30:53;;;;;;;;;;;;;;;;;;5117068;28;19915;-85
2022/08/28 14:33:18;;;;;;;;;;;;;;;;;;5082131;28;19916;-84
2022/08/28 14:35:44;;;;;;;;;;;;;;;;;;5099123;28;19995;-86
2022/08/28 14:38:09;;;;;;;;;;;;;;;;;;5098774;28;19922;-86
2022/08/28 14:40:39;;;;;;;;;;;;;;;;;;5117076;28;19919;-84
2022/08/28 14:43:04;;;;;;;;;;;;;;;;;;5098894;28;19916;-85
2022/08/28 14:45:30;;;;;;;;;;;;;;;;;;5098448;28;19915;-85
2022/08/28 14:47:55;;;;;;;;;;;;;;;;;;5098664;28;19920;-84
2022/08/28 14:50:21;;;;;;;;;;;;;;;;;;5098760;28;19916;-85
2022/08/28 14:52:46;;;;;;;;;;;;;;;;;;5098757;28;19951;-85
2022/08/28 14:55:13;;;;;;;;;;;;;;;;;;5097492;28;19916;-85
2022/08/28 14:57:39;;;;;;;;;;;;;;;;;;5098678;28;19973;-85
2022/08/28 15:00:05;;;;;;;;;;;;;;;;;;5097972;28;19923;-86
2022/08/28 15:02:30;;;;;;;;;;;;;;;;;;5116478;28;19919;-85
2022/08/28 15:04:55;;;;;;;;;;;;;;;;;;5098510;28;19916;-84
2022/08/28 15:07:21;;;;;;;;;;;;;;;;;;5081534;28;19916;-85
2022/08/28 15:09:47;;;;;;;;;;;;;;;;;;5098788;28;20253;-86
2022/08/28 15:12:12;;;;;;;;;;;;;;;;;;5081528;28;20190;-85
2022/08/28 15:14:37;;;;;;;;;;;;;;;;;;5115967;28;19922;-85
2022/08/28 15:17:03;;;;;;;;;;;;;;;;;;5097922;28;19965;-84
2022/08/28 15:19:28;;;;;;;;;;;;;;;;;;5097909;28;19923;-84
2022/08/28 15:21:54;;;;;;;;;;;;;;;;;;5098007;28;19922;-85
2022/08/28 15:24:21;;;;;;;;;;;;;;;;;;5097996;28;19947;-85
2022/08/28 15:26:46;;;;;;;;;;;;;;;;;;5098376;28;20003;-86
2022/08/28 15:29:11;;;;;;;;;;;;;;;;;;5115757;28;19955;-85
2022/08/28 15:31:38;;;;;;;;;;;;;;;;;;5081054;28;19916;-84
2022/08/28 15:34:10;;;;;;;;;;;;;;;;;;5081102;28;19923;-85
2022/08/28 15:36:36;;;;;;;;;;;;;;;;;;5114998;28;19916;-85
2022/08/28 15:41:45;;;;;;;;;;;;;;;;;;5101447;28;19922;-85
2022/08/28 15:44:13;;;;;;;;;;;;;;;;;;5081705;28;19916;-85
2022/08/28 15:46:38;;;;;;;;;;;;;;;;;;5083896;28;19982;-85
2022/08/28 15:49:04;;;;;;;;;;;;;;;;;;5098274;28;20330;-85
2022/08/28 15:51:30;;;;;;;;;;;;;;;;;;5097497;28;19915;-85
2022/08/28 15:53:55;;;;;;;;;;;;;;;;;;5082629;28;19916;-85
2022/08/28 15:56:20;;;;;;;;;;;;;;;;;;5101733;28;19916;-85
2022/08/28 15:58:46;;;;;;;;;;;;;;;;;;5099158;28;20352;-85
2022/08/28 16:01:11;;;;;;;;;;;;;;;;;;5080686;28;20244;-85
2022/08/28 16:03:37;;;;;;;;;;;;;;;;;;5080497;28;20348;-85
2022/08/28 16:06:02;;;;;;;;;;;;;;;;;;5080202;28;19916;-85
2022/08/28 16:08:28;;;;;;;;;;;;;;;;;;5115493;28;19957;-85
2022/08/28 16:10:53;;;;;;;;;;;;;;;;;;5115477;28;19923;-85
2022/08/28 16:13:19;;;;;;;;;;;;;;;;;;5114876;28;19915;-85
2022/08/28 16:15:44;;;;;;;;;;;;;;;;;;5080578;28;19916;-85
2022/08/28 16:18:11;;;;;;;;;;;;;;;;;;5115135;28;19965;-85
2022/08/28 16:20:37;;;;;;;;;;;;;;;;;;5097062;28;19975;-85
2022/08/28 16:23:02;;;;;;;;;;;;;;;;;;5096911;28;19926;-85
2022/08/28 16:25:27;;;;;;;;;;;;;;;;;;5115107;28;19988;-85
2022/08/28 16:27:53;;;;;;;;;;;;;;;;;;5115375;28;19920;-85
2022/08/28 16:30:19;;;;;;;;;;;;;;;;;;5115065;28;19922;-85
2022/08/28 16:32:45;;;;;;;;;;;;;;;;;;5113735;28;19947;-85
2022/08/28 16:35:10;;;;;;;;;;;;;;;;;;5096678;28;19923;-85
2022/08/28 16:37:35;;;;;;;;;;;;;;;;;;5080165;28;19916;-86
2022/08/28 16:40:02;;;;;;;;;;;;;;;;;;5096562;28;19965;-85
2022/08/28 16:42:27;;;;;;;;;;;;;;;;;;5096567;28;19916;-85
2022/08/28 16:44:56;;;;;;;;;;;;;;;;;;5115007;28;19923;-85
2022/08/28 16:47:21;;;;;;;;;;;;;;;;;;5097037;28;19916;-86
2022/08/28 16:49:47;;;;;;;;;;;;;;;;;;5114809;28;19923;-85
2022/08/28 16:52:12;;;;;;;;;;;;;;;;;;5096623;28;19922;-85
2022/08/28 16:54:37;;;;;;;;;;;;;;;;;;5096634;28;19916;-84
2022/08/28 16:57:03;;;;;;;;;;;;;;;;;;5114528;28;19916;-85
2022/08/28 16:59:28;;;;;;;;;;;;;;;;;;5096399;28;19981;-85
2022/08/28 17:01:53;;;;;;;;;;;;;;;;;;5079981;28;19942;-86
2022/08/28 17:04:19;;;;;;;;;;;;;;;;;;5114620;28;19965;-85